Time;durP1;ratioP1;P1;durP2;ratioP2;P2;SDS_P1;SDS_P2;PMS_P1;PMS_P2;Temp;Humidity;BMP_temperature;BMP_pressure;BME280_temperature;BME280_humidity;BME280_pressure;Samples;Min_cycle;Max_cycle;Signal;HPM_P1;HPM_P2
2022/04/25 00:00:20;;;;;;;9.90;7.30;;;11.00;99.90;;;;;;5092638;28;20210;-67
2022/04/25 00:02:46;;;;;;;9.57;7.30;;;11.00;99.90;;;;;;5092667;28;20294;-67
2022/04/25 00:05:13;;;;;;;9.83;7.13;;;11.00;99.90;;;;;;5091555;28;20238;-67
2022/04/25 00:07:40;;;;;;;9.30;6.90;;;11.00;99.90;;;;;;5092633;28;20208;-68
2022/04/25 00:10:08;;;;;;;9.77;7.13;;;11.00;99.90;;;;;;5092244;28;20204;-68
2022/04/25 00:12:35;;;;;;;11.00;7.17;;;11.00;99.90;;;;;;5092487;28;20231;-67
2022/04/25 00:15:03;;;;;;;10.00;7.20;;;11.00;99.90;;;;;;5092531;28;20210;-68
2022/04/25 00:17:30;;;;;;;10.70;7.60;;;11.00;99.90;;;;;;5092316;28;20207;-67
2022/04/25 00:19:57;;;;;;;9.03;6.90;;;11.00;99.90;;;;;;5092601;28;20203;-66
2022/04/25 00:22:23;;;;;;;10.33;6.73;;;11.00;99.90;;;;;;5092436;28;20561;-67
2022/04/25 00:24:50;;;;;;;11.10;7.30;;;11.10;99.90;;;;;;5092449;28;20207;-67
2022/04/25 00:27:17;;;;;;;10.13;6.97;;;11.10;99.90;;;;;;5092401;28;20203;-68
2022/04/25 00:29:44;;;;;;;11.13;7.53;;;11.10;99.90;;;;;;5092534;28;20204;-66
2022/04/25 00:32:12;;;;;;;10.80;7.20;;;11.10;99.90;;;;;;5092208;28;20227;-66
2022/04/25 00:34:39;;;;;;;11.87;7.17;;;11.10;99.90;;;;;;5092095;28;20212;-67
2022/04/25 00:37:06;;;;;;;11.17;7.87;;;11.10;99.90;;;;;;5092137;28;20236;-66
2022/04/25 00:39:33;;;;;;;12.57;7.40;;;11.10;99.90;;;;;;5092449;28;20210;-67
2022/04/25 00:42:00;;;;;;;11.80;7.97;;;11.10;99.90;;;;;;5092308;28;20715;-67
2022/04/25 00:44:27;;;;;;;11.93;8.37;;;11.10;99.90;;;;;;5092485;28;20285;-67
2022/04/25 00:46:54;;;;;;;14.57;8.47;;;11.20;99.90;;;;;;5092206;28;20250;-67
2022/04/25 00:49:23;;;;;;;10.90;7.70;;;11.20;99.90;;;;;;5091544;28;20232;-66
2022/04/25 00:51:52;;;;;;;11.93;8.23;;;11.20;99.90;;;;;;5092073;28;20227;-67
2022/04/25 00:54:20;;;;;;;10.87;7.30;;;11.10;99.90;;;;;;5092057;28;20272;-68
2022/04/25 00:56:48;;;;;;;9.63;7.00;;;11.10;99.90;;;;;;5092105;28;20208;-67
2022/04/25 00:59:16;;;;;;;9.67;7.40;;;11.10;99.90;;;;;;5092012;28;20568;-67
2022/04/25 01:01:44;;;;;;;12.07;7.97;;;11.10;99.90;;;;;;5091813;28;20249;-67
2022/04/25 01:04:11;;;;;;;10.83;7.53;;;11.10;99.90;;;;;;5091534;28;20204;-67
2022/04/25 01:06:40;;;;;;;11.13;7.63;;;11.00;99.90;;;;;;5092074;28;20204;-67
2022/04/25 01:09:07;;;;;;;10.20;7.37;;;11.10;99.90;;;;;;5091908;28;20623;-67
2022/04/25 01:11:34;;;;;;;12.47;7.63;;;11.10;99.90;;;;;;5091917;28;20262;-67
2022/04/25 01:14:12;;;;;;;11.13;7.67;;;11.10;99.90;;;;;;5091506;28;20725;-67
2022/04/25 01:16:39;;;;;;;9.23;7.20;;;11.10;99.90;;;;;;5095106;28;20191;-68
2022/04/25 01:19:06;;;;;;;12.03;7.73;;;11.10;99.90;;;;;;5095845;28;20206;-67
2022/04/25 01:21:39;;;;;;;10.47;7.33;;;11.10;99.90;;;;;;5095659;28;20200;-66
2022/04/25 01:29:38;;;;;;;10.57;7.13;;;11.00;99.90;;;;;;5095662;28;20661;-67
2022/04/25 01:32:06;;;;;;;11.40;7.53;;;11.00;99.90;;;;;;5095319;28;20227;-68
2022/04/25 01:34:36;;;;;;;9.97;7.20;;;11.00;99.90;;;;;;5095781;28;20208;-67
2022/04/25 01:37:05;;;;;;;10.97;7.67;;;11.00;99.90;;;;;;5095855;28;20195;-68
2022/04/25 01:39:34;;;;;;;10.30;7.57;;;11.00;99.90;;;;;;5095608;28;20253;-67
2022/04/25 01:42:01;;;;;;;10.40;7.83;;;11.00;99.90;;;;;;5095120;28;20204;-67
2022/04/25 01:44:28;;;;;;;10.43;7.80;;;11.00;99.90;;;;;;5095564;28;20592;-67
2022/04/25 01:46:55;;;;;;;9.40;6.90;;;11.00;99.90;;;;;;5095233;28;20246;-67
2022/04/25 01:49:21;;;;;;;9.63;7.00;;;10.90;99.90;;;;;;5095059;28;20232;-68
2022/04/25 01:51:48;;;;;;;10.30;7.27;;;10.90;99.90;;;;;;5094904;28;20230;-67
2022/04/25 01:54:21;;;;;;;10.10;7.17;;;10.90;99.90;;;;;;5095147;28;20342;-67
2022/04/25 01:56:49;;;;;;;8.63;7.00;;;10.90;99.90;;;;;;5095323;28;20272;-67
2022/04/25 01:59:16;;;;;;;10.87;7.73;;;10.90;99.90;;;;;;5095019;28;20212;-67
2022/04/25 02:01:43;;;;;;;9.83;7.20;;;10.90;99.90;;;;;;5095238;28;20203;-67
2022/04/25 02:04:10;;;;;;;10.73;7.20;;;10.90;99.90;;;;;;5095022;28;20208;-66
2022/04/25 02:06:37;;;;;;;10.47;7.60;;;10.90;99.90;;;;;;5095112;28;20688;-68
2022/04/25 02:09:04;;;;;;;9.47;7.23;;;10.90;99.90;;;;;;5094634;28;20212;-66
2022/04/25 02:11:31;;;;;;;10.00;7.37;;;10.90;99.90;;;;;;5094885;28;20228;-68
2022/04/25 02:13:59;;;;;;;8.80;6.60;;;10.90;99.90;;;;;;5094685;28;20636;-67
2022/04/25 02:16:27;;;;;;;8.10;6.60;;;10.90;99.90;;;;;;5094629;28;20210;-68
2022/04/25 02:18:55;;;;;;;8.40;6.13;;;10.90;99.90;;;;;;5094709;28;20543;-67
2022/04/25 02:21:22;;;;;;;9.33;6.60;;;10.90;99.90;;;;;;5094828;28;20298;-66
2022/04/25 02:23:49;;;;;;;9.60;6.80;;;10.90;99.90;;;;;;5094533;28;20196;-67
2022/04/25 02:26:16;;;;;;;9.27;6.77;;;10.90;99.90;;;;;;5094419;28;20661;-67
2022/04/25 02:28:43;;;;;;;10.37;7.27;;;10.90;99.90;;;;;;5093916;28;20200;-67
2022/04/25 02:31:11;;;;;;;10.60;7.33;;;10.90;99.90;;;;;;5094377;28;20211;-67
2022/04/25 02:33:38;;;;;;;9.33;6.87;;;10.90;99.90;;;;;;5094460;28;20215;-68
2022/04/25 02:36:05;;;;;;;9.57;7.03;;;10.90;99.90;;;;;;5094182;28;20214;-67
2022/04/25 02:38:33;;;;;;;9.10;6.70;;;10.90;99.90;;;;;;5094205;28;20253;-68
2022/04/25 02:41:06;;;;;;;9.00;6.83;;;10.80;99.90;;;;;;5094381;28;20208;-67
2022/04/25 02:43:34;;;;;;;9.60;7.43;;;10.80;99.90;;;;;;5094459;28;20620;-67
2022/04/25 02:46:01;;;;;;;9.47;7.03;;;10.80;99.90;;;;;;5094237;28;20224;-67
2022/04/25 02:48:30;;;;;;;10.73;7.40;;;10.80;99.90;;;;;;5093972;28;20211;-67
2022/04/25 02:50:57;;;;;;;11.07;7.47;;;10.80;99.90;;;;;;5094678;28;20232;-68
2022/04/25 02:53:25;;;;;;;9.97;7.10;;;10.80;99.90;;;;;;5094599;28;20299;-68
2022/04/25 02:55:52;;;;;;;9.83;7.13;;;10.80;99.90;;;;;;5093721;28;20257;-65
2022/04/25 02:58:19;;;;;;;9.57;7.07;;;10.80;99.90;;;;;;5094108;28;20255;-67
2022/04/25 03:00:47;;;;;;;10.23;6.73;;;10.70;99.90;;;;;;5094037;28;20654;-66
2022/04/25 03:03:14;;;;;;;9.97;6.40;;;10.80;99.90;;;;;;5094027;28;20200;-66
2022/04/25 03:05:43;;;;;;;9.03;6.53;;;10.70;99.90;;;;;;5093612;28;20204;-67
2022/04/25 03:08:11;;;;;;;9.00;7.07;;;10.80;99.90;;;;;;5093845;28;20213;-68
2022/04/25 03:10:38;;;;;;;11.23;6.93;;;10.70;99.90;;;;;;5093588;28;20200;-68
2022/04/25 03:13:06;;;;;;;8.87;6.87;;;10.70;99.90;;;;;;5093487;28;20311;-66
2022/04/25 03:15:33;;;;;;;9.07;6.83;;;10.70;99.90;;;;;;5093778;28;20204;-67
2022/04/25 03:18:00;;;;;;;10.57;7.53;;;10.70;99.90;;;;;;5093459;28;20200;-67
2022/04/25 03:20:27;;;;;;;10.43;7.83;;;10.80;99.90;;;;;;5093643;28;20248;-67
2022/04/25 03:22:55;;;;;;;15.60;10.10;;;10.80;99.90;;;;;;5093486;28;20559;-68
2022/04/25 03:25:22;;;;;;;16.80;10.47;;;10.80;99.90;;;;;;5093225;28;20214;-67
2022/04/25 03:27:49;;;;;;;14.30;9.63;;;10.80;99.90;;;;;;5093397;28;20673;-66
2022/04/25 03:30:16;;;;;;;13.40;8.93;;;10.80;99.90;;;;;;5093570;28;20200;-68
2022/04/25 03:32:46;;;;;;;12.17;8.63;;;10.80;99.90;;;;;;5092985;28;20224;-68
2022/04/25 03:35:13;;;;;;;11.00;7.37;;;10.90;99.90;;;;;;5093289;28;20661;-68
2022/04/25 03:37:40;;;;;;;9.97;7.57;;;10.90;99.90;;;;;;5092902;28;20208;-68
2022/04/25 03:40:09;;;;;;;11.47;7.23;;;11.00;99.90;;;;;;5092887;28;20200;-67
2022/04/25 03:42:36;;;;;;;9.73;7.00;;;11.00;99.90;;;;;;5092932;28;20246;-68
2022/04/25 03:45:03;;;;;;;8.53;6.20;;;11.10;99.90;;;;;;5093259;28;20681;-66
2022/04/25 03:47:30;;;;;;;10.40;7.00;;;11.10;99.90;;;;;;5093139;28;20203;-68
2022/04/25 03:49:57;;;;;;;8.80;6.27;;;11.20;99.90;;;;;;5092442;28;20232;-68
2022/04/25 03:52:24;;;;;;;8.20;6.00;;;11.20;99.90;;;;;;5092922;28;20686;-66
2022/04/25 03:57:37;;;;;;;7.97;5.90;;;11.30;99.90;;;;;;5092768;28;20183;-68
2022/04/25 04:00:06;;;;;;;9.63;6.27;;;11.30;99.90;;;;;;5092856;28;20569;-68
2022/04/25 04:02:33;;;;;;;8.50;5.63;;;11.40;99.90;;;;;;5092907;28;20204;-66
2022/04/25 04:05:00;;;;;;;8.33;6.03;;;11.40;99.90;;;;;;5092652;28;20212;-67
2022/04/25 04:07:27;;;;;;;11.67;7.00;;;11.50;99.90;;;;;;5092793;28;20204;-66
2022/04/25 04:09:54;;;;;;;10.43;6.37;;;11.60;99.90;;;;;;5092637;28;20313;-68
2022/04/25 04:12:24;;;;;;;9.20;6.27;;;11.50;99.90;;;;;;5092597;28;20220;-67
2022/04/25 04:14:53;;;;;;;8.37;6.30;;;11.60;99.90;;;;;;5092283;28;20203;-68
2022/04/25 04:17:19;;;;;;;8.73;6.60;;;11.60;99.90;;;;;;5092656;28;20299;-67
2022/04/25 04:19:47;;;;;;;9.70;6.60;;;11.60;99.90;;;;;;5092453;28;20199;-67
2022/04/25 04:22:14;;;;;;;10.17;7.07;;;11.70;99.90;;;;;;5092614;28;20200;-67
2022/04/25 04:24:41;;;;;;;9.57;6.30;;;11.70;99.90;;;;;;5092467;28;20619;-67
2022/04/25 04:27:08;;;;;;;9.13;6.10;;;11.80;99.90;;;;;;5092340;28;20206;-68
2022/04/25 04:29:36;;;;;;;10.20;6.87;;;11.80;99.90;;;;;;5092361;28;20207;-68
2022/04/25 04:32:06;;;;;;;9.20;6.33;;;11.90;99.90;;;;;;5092066;28;20210;-68
2022/04/25 04:34:33;;;;;;;8.50;5.93;;;11.90;99.90;;;;;;5092161;28;20188;-68
2022/04/25 04:37:00;;;;;;;9.57;6.20;;;12.00;99.90;;;;;;5092457;28;20218;-68
2022/04/25 04:39:27;;;;;;;7.57;5.77;;;12.00;99.90;;;;;;5091987;28;20209;-69
2022/04/25 04:41:54;;;;;;;9.10;6.13;;;12.10;99.90;;;;;;5091856;28;20200;-68
2022/04/25 04:44:21;;;;;;;9.40;6.33;;;12.20;99.90;;;;;;5092276;28;20590;-67
2022/04/25 04:46:48;;;;;;;9.33;6.43;;;12.30;99.90;;;;;;5092005;28;20230;-69
2022/04/25 04:49:16;;;;;;;10.10;6.77;;;12.40;99.90;;;;;;5091826;28;20631;-67
2022/04/25 04:51:44;;;;;;;7.37;5.63;;;12.50;99.90;;;;;;5091638;28;20253;-66
2022/04/25 04:54:10;;;;;;;9.23;6.43;;;12.60;99.90;;;;;;5092182;28;20315;-66
2022/04/25 04:56:37;;;;;;;8.67;5.77;;;12.70;99.90;;;;;;5091943;28;20200;-68
2022/04/25 04:59:05;;;;;;;11.60;5.90;;;12.70;99.90;;;;;;5091880;28;20208;-69
2022/04/25 05:01:32;;;;;;;8.27;5.73;;;12.80;99.90;;;;;;5092067;28;20204;-68
2022/04/25 05:03:59;;;;;;;9.73;6.33;;;12.80;99.90;;;;;;5092073;28;20204;-69
2022/04/25 05:06:27;;;;;;;9.97;6.70;;;13.00;99.90;;;;;;5092149;28;20203;-69
2022/04/25 05:08:54;;;;;;;8.53;5.80;;;13.10;99.90;;;;;;5091892;28;20257;-69
2022/04/25 05:11:21;;;;;;;9.00;5.83;;;13.20;99.90;;;;;;5091829;28;20200;-68
2022/04/25 05:13:48;;;;;;;9.87;6.43;;;13.20;99.90;;;;;;5091656;28;20220;-69
2022/04/25 05:16:15;;;;;;;11.77;6.43;;;13.30;99.90;;;;;;5091683;28;20204;-66
2022/04/25 05:18:44;;;;;;;18.30;13.27;;;13.40;99.90;;;;;;5091450;28;20204;-70
2022/04/25 05:21:13;;;;;;;9.27;6.37;;;13.40;99.90;;;;;;5092077;28;20744;-70
2022/04/25 05:23:42;;;;;;;6.73;5.47;;;13.50;99.90;;;;;;5091621;28;20204;-67
2022/04/25 05:26:09;;;;;;;12.73;8.00;;;13.50;99.90;;;;;;5091456;28;20208;-67
2022/04/25 05:28:36;;;;;;;8.00;5.50;;;13.60;99.90;;;;;;5091537;28;20293;-67
2022/04/25 05:31:03;;;;;;;7.10;5.37;;;13.60;99.90;;;;;;5091639;28;20204;-67
2022/04/25 05:33:30;;;;;;;7.23;5.27;;;13.70;99.90;;;;;;5091420;28;20294;-67
2022/04/25 05:35:57;;;;;;;6.10;5.07;;;13.80;99.90;;;;;;5091353;28;20211;-68
2022/04/25 05:38:24;;;;;;;7.63;5.57;;;13.90;99.90;;;;;;5091443;28;20569;-68
2022/04/25 05:40:52;;;;;;;7.23;5.60;;;14.00;99.90;;;;;;5091576;28;20218;-67
2022/04/25 05:43:19;;;;;;;8.97;5.93;;;14.10;99.90;;;;;;5091386;28;20211;-68
2022/04/25 05:45:47;;;;;;;7.23;5.13;;;14.10;99.90;;;;;;5091472;28;20227;-67
2022/04/25 05:53:43;;;;;;;9.90;5.77;;;14.40;99.90;;;;;;5091339;28;20795;-68
2022/04/25 05:56:12;;;;;;;7.57;5.60;;;14.50;99.90;;;;;;5091749;28;20212;-69
2022/04/25 05:58:39;;;;;;;9.83;5.60;;;14.60;99.90;;;;;;5091597;28;20568;-69
2022/04/25 06:01:06;;;;;;;10.77;5.50;;;14.70;99.90;;;;;;5091864;28;20208;-69
2022/04/25 06:03:33;;;;;;;7.80;5.87;;;14.80;99.90;;;;;;5095076;28;20206;-68
2022/04/25 06:06:00;;;;;;;8.63;5.27;;;14.90;99.90;;;;;;5095292;28;20210;-68
2022/04/25 06:08:26;;;;;;;9.33;5.93;;;15.00;99.90;;;;;;5095205;28;20214;-70
2022/04/25 06:10:53;;;;;;;8.83;5.93;;;15.20;99.90;;;;;;5095020;28;20204;-69
2022/04/25 06:13:21;;;;;;;8.77;5.23;;;15.20;99.90;;;;;;5094965;28;20224;-69
2022/04/25 06:15:48;;;;;;;7.53;5.40;;;15.40;99.90;;;;;;5095093;28;20204;-68
2022/04/25 06:18:15;;;;;;;7.60;5.70;;;15.50;99.90;;;;;;5095279;28;20210;-67
2022/04/25 06:20:42;;;;;;;8.83;5.60;;;15.60;99.90;;;;;;5094974;28;20666;-68
2022/04/25 06:23:08;;;;;;;10.10;5.60;;;15.70;99.90;;;;;;5095050;28;20200;-69
2022/04/25 06:25:37;;;;;;;8.10;5.23;;;15.90;99.90;;;;;;5094697;28;20212;-67
2022/04/25 06:28:04;;;;;;;9.20;5.83;;;16.00;99.90;;;;;;5094860;28;20204;-69
2022/04/25 06:30:33;;;;;;;9.17;5.40;;;16.10;99.90;;;;;;5094773;28;20300;-70
2022/04/25 06:33:01;;;;;;;9.13;5.17;;;16.30;99.90;;;;;;5094592;28;20682;-67
2022/04/25 06:35:28;;;;;;;8.70;5.63;;;16.40;99.90;;;;;;5094414;28;20204;-71
2022/04/25 06:37:55;;;;;;;9.53;5.60;;;16.40;99.90;;;;;;5094158;28;20214;-68
2022/04/25 06:40:22;;;;;;;8.87;5.63;;;16.50;99.90;;;;;;5094222;28;20209;-71
2022/04/25 06:42:51;;;;;;;11.70;5.77;;;16.60;99.90;;;;;;5094324;28;20635;-68
2022/04/25 06:45:17;;;;;;;7.23;5.37;;;16.70;99.90;;;;;;5094091;28;20231;-68
2022/04/25 06:47:46;;;;;;;7.47;5.77;;;16.80;99.90;;;;;;5094281;28;20593;-68
2022/04/25 06:50:13;;;;;;;8.33;5.80;;;16.80;99.90;;;;;;5093887;28;20236;-68
2022/04/25 06:52:40;;;;;;;8.43;5.30;;;16.90;99.90;;;;;;5094170;28;20204;-68
2022/04/25 06:55:07;;;;;;;10.30;5.57;;;17.00;99.90;;;;;;5093921;28;20208;-67
2022/04/25 06:57:34;;;;;;;9.93;6.07;;;17.10;99.90;;;;;;5093701;28;20299;-68
2022/04/25 07:00:01;;;;;;;8.77;5.40;;;17.20;99.90;;;;;;5093562;28;20212;-68
2022/04/25 07:02:28;;;;;;;8.03;5.33;;;17.30;99.90;;;;;;5093816;28;20301;-67
2022/04/25 07:04:56;;;;;;;8.43;5.40;;;17.40;99.90;;;;;;5093930;28;20634;-67
2022/04/25 07:07:25;;;;;;;7.63;5.70;;;17.50;99.90;;;;;;5093423;28;20202;-68
2022/04/25 07:09:52;;;;;;;8.87;5.17;;;17.60;99.90;;;;;;5093859;28;20220;-67
2022/04/25 07:12:19;;;;;;;8.40;5.10;;;17.60;99.90;;;;;;5093687;28;20208;-67
2022/04/25 07:14:45;;;;;;;7.53;4.73;;;17.70;99.90;;;;;;5093192;28;20588;-68
2022/04/25 07:17:12;;;;;;;8.87;5.20;;;17.70;99.90;;;;;;5093623;28;20213;-68
2022/04/25 07:19:39;;;;;;;8.10;5.20;;;17.70;99.90;;;;;;5093683;28;20206;-68
2022/04/25 07:30:23;;;;;;;6.97;4.53;;;17.90;99.90;;;;;;5093129;28;20195;-67
2022/04/25 07:32:49;;;;;;;7.27;4.80;;;18.00;99.90;;;;;;5093407;28;20576;-66
2022/04/25 07:35:17;;;;;;;9.20;5.40;;;18.10;99.90;;;;;;5093021;28;20205;-68
2022/04/25 07:37:45;;;;;;;7.57;5.20;;;18.20;99.90;;;;;;5092821;28;20208;-68
2022/04/25 07:40:12;;;;;;;7.13;4.97;;;18.30;99.90;;;;;;5092702;28;20218;-67
2022/04/25 07:42:39;;;;;;;8.57;5.47;;;18.40;99.90;;;;;;5092605;28;20214;-69
2022/04/25 07:45:08;;;;;;;12.33;5.27;;;18.40;99.90;;;;;;5092373;28;20242;-67
2022/04/25 07:47:35;;;;;;;6.30;4.53;;;18.40;99.90;;;;;;5092807;28;20202;-68
2022/04/25 07:50:03;;;;;;;6.67;4.43;;;18.50;99.90;;;;;;5092494;28;20656;-68
2022/04/25 07:52:30;;;;;;;6.57;4.70;;;18.60;99.90;;;;;;5092483;28;20692;-66
2022/04/25 07:54:58;;;;;;;7.07;4.50;;;18.70;99.90;;;;;;5092807;28;20289;-68
2022/04/25 07:57:25;;;;;;;5.87;4.30;;;18.80;99.90;;;;;;5092650;28;20575;-67
2022/04/25 07:59:52;;;;;;;8.80;4.80;;;18.90;99.90;;;;;;5092293;28;20204;-68
2022/04/25 08:02:19;;;;;;;6.33;4.47;;;19.00;99.90;;;;;;5092512;28;20634;-67
2022/04/25 08:04:46;;;;;;;8.23;5.30;;;19.10;99.90;;;;;;5092799;28;20204;-69
2022/04/25 08:07:13;;;;;;;9.40;4.93;;;19.10;99.90;;;;;;5092094;28;20315;-68
2022/04/25 08:09:40;;;;;;;9.93;5.37;;;19.10;99.90;;;;;;5092487;28;20203;-71
2022/04/25 08:20:23;;;;;;;8.37;4.90;;;19.20;99.90;;;;;;5092076;28;20182;-68
2022/04/25 08:22:50;;;;;;;7.87;4.80;;;19.30;99.90;;;;;;5092164;28;20227;-68
2022/04/25 08:25:17;;;;;;;7.97;4.70;;;19.40;99.90;;;;;;5091163;28;20311;-68
2022/04/25 08:27:46;;;;;;;7.20;4.67;;;19.60;99.90;;;;;;5092157;28;20212;-68
2022/04/25 08:30:13;;;;;;;8.10;4.70;;;19.70;99.90;;;;;;5091825;28;20581;-69
2022/04/25 08:32:39;;;;;;;7.33;4.47;;;19.80;99.90;;;;;;5091609;28;20216;-69
2022/04/25 08:35:08;;;;;;;6.87;4.60;;;19.80;99.90;;;;;;5091451;28;20406;-68
2022/04/25 08:37:35;;;;;;;12.07;7.77;;;19.80;99.90;;;;;;5091715;28;20212;-68
2022/04/25 08:40:02;;;;;;;10.10;5.10;;;19.80;99.90;;;;;;5091546;28;20205;-68
2022/04/25 08:42:31;;;;;;;8.00;4.60;;;19.80;99.90;;;;;;5091853;28;20562;-69
2022/04/25 08:45:01;;;;;;;7.17;4.53;;;19.90;99.90;;;;;;5091628;28;20690;-67
2022/04/25 08:47:30;;;;;;;7.53;4.20;;;20.00;99.90;;;;;;5091896;28;20205;-68
2022/04/25 08:49:58;;;;;;;7.67;5.17;;;20.00;99.90;;;;;;5091315;28;20236;-68
2022/04/25 08:52:27;;;;;;;10.00;5.27;;;20.10;99.90;;;;;;5091861;28;20654;-68
2022/04/25 08:54:57;;;;;;;8.67;5.10;;;20.20;99.90;;;;;;5091317;28;20216;-67
2022/04/25 08:57:24;;;;;;;7.50;4.63;;;20.30;99.90;;;;;;5091497;28;20210;-68
2022/04/25 08:59:52;;;;;;;7.13;4.57;;;20.40;99.90;;;;;;5091570;28;20206;-68
2022/04/25 09:02:22;;;;;;;7.10;4.57;;;20.30;99.90;;;;;;5091846;28;20657;-69
2022/04/25 09:04:50;;;;;;;7.90;4.93;;;20.30;99.90;;;;;;5091598;28;20204;-69
2022/04/25 09:07:17;;;;;;;7.03;4.57;;;20.40;99.90;;;;;;5091738;28;20236;-69
2022/04/25 09:09:44;;;;;;;8.10;4.97;;;20.40;99.90;;;;;;5091585;28;20200;-67
2022/04/25 09:12:13;;;;;;;7.73;5.60;;;20.50;99.90;;;;;;5091496;28;20203;-69
2022/04/25 09:14:42;;;;;;;9.00;5.00;;;20.50;99.90;;;;;;5091613;28;20227;-67
2022/04/25 09:17:09;;;;;;;9.07;4.63;;;20.50;99.90;;;;;;5091431;28;20212;-69
2022/04/25 09:19:38;;;;;;;7.77;5.20;;;20.60;99.90;;;;;;5091160;28;20205;-68
2022/04/25 09:22:07;;;;;;;7.17;4.50;;;20.50;99.90;;;;;;5091425;28;20209;-68
2022/04/25 09:24:35;;;;;;;8.40;4.97;;;20.50;99.90;;;;;;5091641;28;20200;-68
2022/04/25 09:27:13;;;;;;;8.53;5.00;;;20.50;99.90;;;;;;5091171;28;20205;-72
2022/04/25 09:29:41;;;;;;;8.53;4.47;;;20.40;99.90;;;;;;5091246;28;20291;-67
2022/04/25 09:32:09;;;;;;;7.87;4.50;;;20.30;99.90;;;;;;5091090;28;20221;-67
2022/04/25 09:37:40;;;;;;;8.80;4.93;;;20.30;99.90;;;;;;5093797;28;20212;-68
2022/04/25 09:40:08;;;;;;;9.10;4.60;;;20.30;99.90;;;;;;5095199;28;20190;-67
2022/04/25 09:42:36;;;;;;;8.30;5.30;;;20.20;99.90;;;;;;5095141;28;20205;-67
2022/04/25 09:45:05;;;;;;;10.00;5.40;;;20.20;99.90;;;;;;5095297;28;20588;-68
2022/04/25 09:47:33;;;;;;;7.67;5.07;;;20.10;99.90;;;;;;5094796;28;20200;-68
2022/04/25 09:50:03;;;;;;;8.40;5.20;;;20.10;99.90;;;;;;5094693;28;20351;-68
2022/04/25 09:52:31;;;;;;;7.03;4.80;;;20.10;99.90;;;;;;5095272;28;20208;-68
2022/04/25 09:55:10;;;;;;;9.17;5.40;;;20.10;99.90;;;;;;5094735;28;20227;-67
2022/04/25 09:57:37;;;;;;;7.00;4.53;;;20.20;99.90;;;;;;5095043;28;20200;-68
2022/04/25 10:00:05;;;;;;;7.93;5.37;;;20.10;99.90;;;;;;5094909;28;20207;-66
2022/04/25 10:02:32;;;;;;;8.13;4.97;;;20.10;99.90;;;;;;5095063;28;20210;-67
2022/04/25 10:04:59;;;;;;;6.40;4.80;;;20.10;99.90;;;;;;5094626;28;20253;-66
2022/04/25 10:07:27;;;;;;;8.67;5.63;;;20.10;99.90;;;;;;5094621;28;20205;-68
2022/04/25 10:09:55;;;;;;;7.47;4.50;;;20.20;99.90;;;;;;5094168;28;20217;-68
2022/04/25 10:12:22;;;;;;;10.77;5.57;;;20.10;99.90;;;;;;5094731;28;20205;-67
2022/04/25 10:14:50;;;;;;;8.03;5.00;;;20.20;99.90;;;;;;5094425;28;20569;-68
2022/04/25 10:17:17;;;;;;;7.53;5.40;;;20.30;99.90;;;;;;5094490;28;20564;-67
2022/04/25 10:19:45;;;;;;;6.60;5.13;;;20.30;99.90;;;;;;5094171;28;20215;-68
2022/04/25 10:22:13;;;;;;;8.50;4.90;;;20.30;99.90;;;;;;5094437;28;20204;-68
2022/04/25 10:24:44;;;;;;;8.47;4.70;;;20.40;99.90;;;;;;5094137;28;20210;-69
2022/04/25 10:27:14;;;;;;;8.27;4.80;;;20.50;99.90;;;;;;5094248;28;20188;-68
2022/04/25 10:29:45;;;;;;;8.00;5.43;;;20.60;99.90;;;;;;5094743;28;20207;-68
2022/04/25 10:32:12;;;;;;;6.63;4.57;;;20.70;99.90;;;;;;5094343;28;20187;-68
2022/04/25 10:34:47;;;;;;;7.03;4.90;;;20.80;99.90;;;;;;5094484;28;20236;-69
2022/04/25 10:37:33;;;;;;;7.70;5.17;;;20.80;99.90;;;;;;5094336;28;20603;-67
2022/04/25 10:40:04;;;;;;;7.80;5.37;;;20.90;99.90;;;;;;5094368;28;20192;-66
2022/04/25 10:45:15;;;;;;;8.23;5.30;;;21.00;99.90;;;;;;5094087;28;20217;-68
2022/04/25 10:47:57;;;;;;;10.80;5.33;;;21.00;99.90;;;;;;5093292;28;20209;-68
2022/04/25 10:50:24;;;;;;;7.00;4.73;;;21.10;99.90;;;;;;5093824;28;20278;-67
2022/04/25 10:53:01;;;;;;;10.67;4.70;;;21.10;99.90;;;;;;5093902;28;20670;-67
2022/04/25 10:55:42;;;;;;;7.53;3.60;;;21.20;99.90;;;;;;5094061;28;20253;-68
2022/04/25 10:58:14;;;;;;;9.90;4.90;;;21.30;99.90;;;;;;5094416;28;20222;-68
2022/04/25 11:00:52;;;;;;;8.23;4.80;;;21.40;99.90;;;;;;5093909;28;20223;-68
2022/04/25 11:03:23;;;;;;;9.73;4.73;;;21.30;99.90;;;;;;5094157;28;20563;-67
2022/04/25 11:05:50;;;;;;;6.47;4.23;;;21.30;99.90;;;;;;5093745;28;20627;-67
2022/04/25 11:08:39;;;;;;;9.47;4.93;;;21.30;99.90;;;;;;5093818;28;20287;-69
2022/04/25 11:11:20;;;;;;;6.80;4.50;;;21.30;99.90;;;;;;5087638;28;20239;-67
2022/04/25 11:14:12;;;;;;;6.77;4.60;;;21.20;99.90;;;;;;5093260;28;20192;-68
2022/04/25 11:16:40;;;;;;;7.90;4.20;;;21.20;99.90;;;;;;5093478;28;20653;-68
2022/04/25 11:19:09;;;;;;;7.53;4.60;;;21.10;99.90;;;;;;5093667;28;20560;-67
2022/04/25 11:21:41;;;;;;;9.13;4.83;;;21.00;99.90;;;;;;5093224;28;20214;-67
2022/04/25 11:24:26;;;;;;;9.73;4.60;;;21.00;99.90;;;;;;5093187;28;20188;-67
2022/04/25 11:27:00;;;;;;;7.70;4.00;;;20.90;99.90;;;;;;5093238;28;20200;-67
2022/04/25 11:29:28;;;;;;;10.70;4.17;;;20.80;99.90;;;;;;5093448;28;20541;-68
2022/04/25 11:32:26;;;;;;;10.57;4.47;;;20.80;99.90;;;;;;5093044;28;20224;-69
2022/04/25 11:34:53;;;;;;;8.43;4.87;;;20.80;99.90;;;;;;5092614;28;20222;-66
2022/04/25 11:37:22;;;;;;;7.90;5.10;;;20.80;99.90;;;;;;5092887;28;20200;-68
2022/04/25 11:39:59;;;;;;;8.73;4.67;;;20.70;99.90;;;;;;5093103;28;20210;-67
2022/04/25 11:42:29;;;;;;;9.87;4.77;;;20.70;99.90;;;;;;5092903;28;20203;-69
2022/04/25 11:44:56;;;;;;;9.20;4.83;;;20.70;99.90;;;;;;5092895;28;20713;-68
2022/04/25 11:47:23;;;;;;;9.23;5.13;;;20.70;99.90;;;;;;5092969;28;20203;-69
2022/04/25 11:50:00;;;;;;;10.77;5.63;;;20.60;99.90;;;;;;5092513;28;20651;-68
2022/04/25 11:52:27;;;;;;;12.93;5.83;;;20.60;99.90;;;;;;5092713;28;20196;-69
2022/04/25 11:54:55;;;;;;;11.43;5.60;;;20.60;99.90;;;;;;5092764;28;20249;-68
2022/04/25 11:57:23;;;;;;;9.57;5.30;;;20.50;99.90;;;;;;5092900;28;20237;-67
2022/04/25 12:00:09;;;;;;;8.87;5.17;;;20.30;99.90;;;;;;5092554;28;20208;-69
2022/04/25 12:02:37;;;;;;;10.57;5.37;;;20.10;99.90;;;;;;5092824;28;20188;-69
2022/04/25 12:05:07;;;;;;;9.23;5.00;;;20.00;99.90;;;;;;5092604;28;20258;-68
2022/04/25 12:07:34;;;;;;;9.13;5.20;;;19.90;99.90;;;;;;5092476;28;20287;-68
2022/04/25 12:15:37;;;;;;;7.40;5.13;;;20.00;99.90;;;;;;5092129;28;20359;-67
2022/04/25 12:18:15;;;;;;;9.43;5.27;;;20.10;99.90;;;;;;5092483;28;20615;-67
2022/04/25 12:20:43;;;;;;;10.77;4.93;;;20.10;99.90;;;;;;5092437;28;20568;-70
2022/04/25 12:23:11;;;;;;;10.53;5.73;;;20.20;99.90;;;;;;5092460;28;20574;-68
2022/04/25 12:25:43;;;;;;;10.87;5.30;;;20.10;99.90;;;;;;5092209;28;20212;-69
2022/04/25 12:28:18;;;;;;;9.87;5.77;;;20.00;99.90;;;;;;5092327;28;20218;-67
2022/04/25 12:30:49;;;;;;;10.23;5.10;;;20.00;99.90;;;;;;5092242;28;20562;-69
2022/04/25 12:33:17;;;;;;;9.03;5.43;;;20.10;99.90;;;;;;5092475;28;20193;-69
2022/04/25 12:35:46;;;;;;;8.53;5.10;;;20.20;99.90;;;;;;5092059;28;20227;-68
2022/04/25 12:38:38;;;;;;;8.37;4.73;;;20.30;99.90;;;;;;5091912;28;20561;-67
2022/04/25 12:41:06;;;;;;;8.93;4.57;;;20.40;99.90;;;;;;5092104;28;20219;-68
2022/04/25 12:43:44;;;;;;;7.50;5.23;;;20.50;99.90;;;;;;5091991;28;20548;-68
2022/04/25 12:46:13;;;;;;;10.70;4.50;;;20.60;99.90;;;;;;5091767;28;20181;-67
2022/04/25 12:49:00;;;;;;;7.07;4.20;;;20.70;99.90;;;;;;5091414;28;20205;-67
2022/04/25 12:51:33;;;;;;;8.23;3.83;;;20.80;99.90;;;;;;5091777;28;20276;-69
2022/04/25 12:54:00;;;;;;;7.87;4.50;;;20.80;99.90;;;;;;5091584;28;20210;-67
2022/04/25 12:56:29;;;;;;;9.93;4.13;;;20.90;99.90;;;;;;5091315;28;20227;-69
2022/04/25 12:58:56;;;;;;;8.47;4.53;;;20.90;99.90;;;;;;5091912;28;20568;-67
2022/04/25 13:01:32;;;;;;;8.10;4.07;;;20.90;99.90;;;;;;5091719;28;20203;-68
2022/04/25 13:04:11;;;;;;;8.23;4.30;;;21.00;99.90;;;;;;5091779;28;20195;-68
2022/04/25 13:06:38;;;;;;;8.00;4.00;;;21.00;99.90;;;;;;5091705;28;20554;-68
2022/04/25 13:09:06;;;;;;;8.57;4.47;;;21.10;99.90;;;;;;5091813;28;20250;-67
2022/04/25 13:11:33;;;;;;;11.17;4.97;;;21.10;99.90;;;;;;5092975;28;20306;-67
2022/04/25 13:14:00;;;;;;;13.17;4.57;;;21.10;99.90;;;;;;5095739;28;20204;-68
2022/04/25 13:16:28;;;;;;;7.83;4.87;;;21.20;99.90;;;;;;5095562;28;20219;-67
2022/04/25 13:18:55;;;;;;;11.77;5.03;;;21.20;99.90;;;;;;5095373;28;20215;-67
2022/04/25 13:21:22;;;;;;;11.50;5.27;;;21.20;99.90;;;;;;5095300;28;20205;-68
2022/04/25 13:23:50;;;;;;;7.47;4.70;;;21.20;99.90;;;;;;5095681;28;20694;-69
2022/04/25 13:26:17;;;;;;;8.80;5.10;;;21.20;99.90;;;;;;5095579;28;20654;-70
2022/04/25 13:28:45;;;;;;;9.73;5.07;;;21.20;99.90;;;;;;5095416;28;20206;-67
2022/04/25 13:31:12;;;;;;;7.67;4.20;;;21.20;99.90;;;;;;5095692;28;20589;-68